PWSweather.com
Personal Weather Stations
Station Observations
KILMORRI1
Goose Lake, Morris, IL 60450

Goose LakeMorris, IL 60450

Lat: 41.34, Lon: -88.3

Elevation: 523

Station Type:

www.gooselakeweather.com

High Low Average
Temperature 32.8°F0.4°C 25.3°F-3.7°C 27.9°F-2.3°C
Dew Point 30.2°F-1.0°C 21.9°F-5.6°C 24.6°F-4.1°C
Winds 8.1 mph 13.0 kmh 1.2 mph 1.9 kmh 5.0 mph SW8.0 kmh SW
Wind Gusts 13.8 mph22.2 kmh 2.3 mph3.7 kmh 7.0 mph11.3 kmh
Humidity 91% 82% 87%
Pressure 30.30 in1026.1 mb 30.10 in1019.3 mb -
Precipitation 0.00 in0.0 mm - -
Hour Temp Dew Point Humidity Winds Wind Gusts Pressure Precip Precip Rate Daily Precip Total
12:00 AM 25.8°F-3.4°C 22.4°F-5.3°C 87% 5.8 mph W9.3 kmh W 10.4 mph16.7 kmh 30.31 in1026.4 mb - 0.00 in0.0 mm 0.00 in0.0 mm
12:10 AM 25.6°F-3.6°C 22.5°F-5.3°C 88% 3.5 mph WNW5.6 kmh WNW 4.6 mph7.4 kmh 30.31 in1026.4 mb - 0.00 in0.0 mm 0.00 in0.0 mm
12:20 AM 25.6°F-3.6°C 22.5°F-5.3°C 88% 4.6 mph W7.4 kmh W 8.1 mph13.0 kmh 30.31 in1026.4 mb - 0.00 in0.0 mm 0.00 in0.0 mm
12:30 AM 25.5°F-3.6°C 22.4°F-5.3°C 88% 4.6 mph WSW7.4 kmh WSW 5.8 mph9.3 kmh 30.31 in1026.4 mb - 0.00 in0.0 mm 0.00 in0.0 mm
12:40 AM 25.5°F-3.6°C 22.4°F-5.3°C 88% 5.8 mph W9.3 kmh W 6.9 mph11.1 kmh 30.31 in1026.4 mb - 0.00 in0.0 mm 0.00 in0.0 mm
12:50 AM 25.4°F-3.7°C 22.3°F-5.4°C 88% 6.9 mph WNW11.1 kmh WNW 11.5 mph18.5 kmh 30.30 in1026.1 mb - 0.00 in0.0 mm 0.00 in0.0 mm
01:00 AM 25.4°F-3.7°C 22.3°F-5.4°C 88% 4.6 mph WSW7.4 kmh WSW 4.6 mph7.4 kmh 30.30 in1026.1 mb - 0.00 in0.0 mm 0.00 in0.0 mm
01:10 AM 25.5°F-3.6°C 22.4°F-5.3°C 88% 5.8 mph WSW9.3 kmh WSW 8.1 mph13.0 kmh 30.29 in1025.7 mb - 0.00 in0.0 mm 0.00 in0.0 mm
01:20 AM 25.6°F-3.6°C 22.5°F-5.3°C 88% 5.8 mph W9.3 kmh W 6.9 mph11.1 kmh 30.29 in1025.7 mb - 0.00 in0.0 mm 0.00 in0.0 mm
01:30 AM 25.6°F-3.6°C 22.5°F-5.3°C 88% 3.5 mph WSW5.6 kmh WSW 4.6 mph7.4 kmh 30.29 in1025.7 mb - 0.00 in0.0 mm 0.00 in0.0 mm
01:40 AM 25.6°F-3.6°C 22.6°F-5.2°C 88% 5.8 mph W9.3 kmh W 6.9 mph11.1 kmh 30.28 in1025.4 mb - 0.00 in0.0 mm 0.00 in0.0 mm
01:50 AM 25.7°F-3.5°C 22.4°F-5.3°C 87% 4.6 mph W7.4 kmh W 8.1 mph13.0 kmh 30.28 in1025.4 mb - 0.00 in0.0 mm 0.00 in0.0 mm
02:00 AM 25.7°F-3.5°C 22.4°F-5.3°C 87% 4.6 mph W7.4 kmh W 8.1 mph13.0 kmh 30.28 in1025.4 mb - 0.00 in0.0 mm 0.00 in0.0 mm
02:10 AM 25.7°F-3.5°C 22.4°F-5.3°C 87% 3.5 mph W5.6 kmh W 9.2 mph14.8 kmh 30.28 in1025.4 mb - 0.00 in0.0 mm 0.00 in0.0 mm
02:20 AM 25.8°F-3.4°C 22.5°F-5.3°C 87% 2.3 mph W3.7 kmh W 3.5 mph5.6 kmh 30.28 in1025.4 mb - 0.00 in0.0 mm 0.00 in0.0 mm
02:30 AM 25.8°F-3.4°C 22.7°F-5.2°C 88% 4.6 mph W7.4 kmh W 5.8 mph9.3 kmh 30.29 in1025.7 mb - 0.00 in0.0 mm 0.00 in0.0 mm
02:40 AM 25.8°F-3.4°C 22.7°F-5.2°C 88% 3.5 mph W5.6 kmh W 4.6 mph7.4 kmh 30.29 in1025.7 mb - 0.00 in0.0 mm 0.00 in0.0 mm
02:50 AM 25.6°F-3.6°C 22.6°F-5.2°C 88% 3.5 mph W5.6 kmh W 4.6 mph7.4 kmh 30.29 in1025.7 mb - 0.00 in0.0 mm 0.00 in0.0 mm
03:00 AM 25.6°F-3.6°C 22.5°F-5.3°C 88% 4.6 mph W7.4 kmh W 6.9 mph11.1 kmh 30.29 in1025.7 mb - 0.00 in0.0 mm 0.00 in0.0 mm
03:10 AM 25.6°F-3.6°C 22.5°F-5.3°C 88% 3.5 mph WSW5.6 kmh WSW 8.1 mph13.0 kmh 30.29 in1025.7 mb - 0.00 in0.0 mm 0.00 in0.0 mm
03:20 AM 25.6°F-3.6°C 22.5°F-5.3°C 88% 3.5 mph W5.6 kmh W 4.6 mph7.4 kmh 30.30 in1026.1 mb - 0.00 in0.0 mm 0.00 in0.0 mm
03:30 AM 25.5°F-3.6°C 22.5°F-5.3°C 88% 3.5 mph W5.6 kmh W 4.6 mph7.4 kmh 30.29 in1025.7 mb - 0.00 in0.0 mm 0.00 in0.0 mm
03:40 AM 25.5°F-3.6°C 22.5°F-5.3°C 88% 3.5 mph WSW5.6 kmh WSW 5.8 mph9.3 kmh 30.29 in1025.7 mb - 0.00 in0.0 mm 0.00 in0.0 mm
03:50 AM 25.5°F-3.6°C 22.4°F-5.3°C 88% 2.3 mph WSW3.7 kmh WSW 3.5 mph5.6 kmh 30.29 in1025.7 mb - 0.00 in0.0 mm 0.00 in0.0 mm
04:00 AM 25.5°F-3.6°C 22.4°F-5.3°C 88% 4.6 mph WSW7.4 kmh WSW 11.5 mph18.5 kmh 30.29 in1025.7 mb - 0.00 in0.0 mm 0.00 in0.0 mm
04:10 AM 25.4°F-3.7°C 22.4°F-5.3°C 88% 4.6 mph SW7.4 kmh SW 6.9 mph11.1 kmh 30.29 in1025.7 mb - 0.00 in0.0 mm 0.00 in0.0 mm
04:20 AM 25.4°F-3.7°C 22.3°F-5.4°C 88% 4.6 mph WSW7.4 kmh WSW 8.1 mph13.0 kmh 30.29 in1025.7 mb - 0.00 in0.0 mm 0.00 in0.0 mm
04:30 AM 25.4°F-3.7°C 22.3°F-5.4°C 88% 3.5 mph WSW5.6 kmh WSW 3.5 mph5.6 kmh 30.29 in1025.7 mb - 0.00 in0.0 mm 0.00 in0.0 mm
04:40 AM 25.4°F-3.7°C 22.1°F-5.5°C 87% 3.5 mph WSW5.6 kmh WSW 3.5 mph5.6 kmh 30.28 in1025.4 mb - 0.00 in0.0 mm 0.00 in0.0 mm
04:50 AM 25.4°F-3.7°C 22.1°F-5.5°C 87% 2.3 mph WSW3.7 kmh WSW 3.5 mph5.6 kmh 30.28 in1025.4 mb - 0.00 in0.0 mm 0.00 in0.0 mm
05:00 AM 25.4°F-3.7°C 22.1°F-5.5°C 87% 3.5 mph WSW5.6 kmh WSW 5.8 mph9.3 kmh 30.28 in1025.4 mb - 0.00 in0.0 mm 0.00 in0.0 mm
05:10 AM 25.4°F-3.7°C 22.1°F-5.5°C 87% 2.3 mph SW3.7 kmh SW 3.5 mph5.6 kmh 30.27 in1025.1 mb - 0.00 in0.0 mm 0.00 in0.0 mm
05:20 AM 25.4°F-3.7°C 22.1°F-5.5°C 87% 2.3 mph WSW3.7 kmh WSW 3.5 mph5.6 kmh 30.28 in1025.4 mb - 0.00 in0.0 mm 0.00 in0.0 mm
05:30 AM 25.4°F-3.7°C 22.1°F-5.5°C 87% 2.3 mph SW3.7 kmh SW 3.5 mph5.6 kmh 30.27 in1025.1 mb - 0.00 in0.0 mm 0.00 in0.0 mm
05:40 AM 25.4°F-3.7°C 22.1°F-5.5°C 87% 2.3 mph WSW3.7 kmh WSW 3.5 mph5.6 kmh 30.27 in1025.1 mb - 0.00 in0.0 mm 0.00 in0.0 mm
05:50 AM 25.4°F-3.7°C 22.1°F-5.5°C 87% 3.5 mph WSW5.6 kmh WSW 3.5 mph5.6 kmh 30.27 in1025.1 mb - 0.00 in0.0 mm 0.00 in0.0 mm
06:00 AM 25.4°F-3.7°C 22.1°F-5.5°C 87% 3.5 mph SW5.6 kmh SW 6.9 mph11.1 kmh 30.27 in1025.1 mb - 0.00 in0.0 mm 0.00 in0.0 mm
06:10 AM 25.4°F-3.7°C 22.1°F-5.5°C 87% 4.6 mph WSW7.4 kmh WSW 5.8 mph9.3 kmh 30.27 in1025.1 mb - 0.00 in0.0 mm 0.00 in0.0 mm
06:20 AM 25.3°F-3.7°C 22.0°F-5.6°C 87% 3.5 mph SW5.6 kmh SW 4.6 mph7.4 kmh 30.27 in1025.1 mb - 0.00 in0.0 mm 0.00 in0.0 mm
06:30 AM 25.3°F-3.7°C 22.0°F-5.6°C 87% 4.6 mph SW7.4 kmh SW 8.1 mph13.0 kmh 30.27 in1025.1 mb - 0.00 in0.0 mm 0.00 in0.0 mm
06:40 AM 25.3°F-3.7°C 22.0°F-5.6°C 87% 4.6 mph SW7.4 kmh SW 5.8 mph9.3 kmh 30.27 in1025.1 mb - 0.00 in0.0 mm 0.00 in0.0 mm
06:50 AM 25.3°F-3.7°C 22.0°F-5.6°C 87% 3.5 mph SW5.6 kmh SW 4.6 mph7.4 kmh 30.27 in1025.1 mb - 0.00 in0.0 mm 0.00 in0.0 mm
07:00 AM 25.3°F-3.7°C 22.0°F-5.6°C 87% 2.3 mph WSW3.7 kmh WSW 5.8 mph9.3 kmh 30.27 in1025.1 mb - 0.00 in0.0 mm 0.00 in0.0 mm
07:10 AM 25.4°F-3.7°C 22.1°F-5.5°C 87% 4.6 mph WSW7.4 kmh WSW 6.9 mph11.1 kmh 30.27 in1025.1 mb - 0.00 in0.0 mm 0.00 in0.0 mm
07:20 AM 25.5°F-3.6°C 21.9°F-5.6°C 86% 3.5 mph SW5.6 kmh SW 5.8 mph9.3 kmh 30.27 in1025.1 mb - 0.00 in0.0 mm 0.00 in0.0 mm
07:30 AM 25.6°F-3.6°C 22.0°F-5.6°C 86% 2.3 mph WSW3.7 kmh WSW 3.5 mph5.6 kmh 30.26 in1024.7 mb - 0.00 in0.0 mm 0.00 in0.0 mm
07:40 AM 25.6°F-3.6°C 22.0°F-5.6°C 86% 3.5 mph WSW5.6 kmh WSW 4.6 mph7.4 kmh 30.26 in1024.7 mb - 0.00 in0.0 mm 0.00 in0.0 mm
07:50 AM 25.8°F-3.4°C 22.2°F-5.4°C 86% 3.5 mph WSW5.6 kmh WSW 6.9 mph11.1 kmh 30.25 in1024.4 mb - 0.00 in0.0 mm 0.00 in0.0 mm
08:00 AM 25.8°F-3.4°C 21.9°F-5.6°C 85% 3.5 mph WSW5.6 kmh WSW 4.6 mph7.4 kmh 30.25 in1024.4 mb - 0.00 in0.0 mm 0.00 in0.0 mm
08:10 AM 25.9°F-3.4°C 22.0°F-5.6°C 85% 4.6 mph SW7.4 kmh SW 3.5 mph5.6 kmh 30.25 in1024.4 mb - 0.00 in0.0 mm 0.00 in0.0 mm
08:20 AM 26.0°F-3.3°C 22.1°F-5.5°C 85% 3.5 mph SW5.6 kmh SW 5.8 mph9.3 kmh 30.25 in1024.4 mb - 0.00 in0.0 mm 0.00 in0.0 mm
08:30 AM 25.9°F-3.4°C 22.0°F-5.6°C 85% 2.3 mph WSW3.7 kmh WSW 3.5 mph5.6 kmh 30.24 in1024.0 mb - 0.00 in0.0 mm 0.00 in0.0 mm
08:40 AM 25.9°F-3.4°C 22.3°F-5.4°C 86% 1.2 mph SW1.9 kmh SW 2.3 mph3.7 kmh 30.24 in1024.0 mb - 0.00 in0.0 mm 0.00 in0.0 mm
08:50 AM 26.0°F-3.3°C 22.4°F-5.3°C 86% 2.3 mph SW3.7 kmh SW 3.5 mph5.6 kmh 30.24 in1024.0 mb - 0.00 in0.0 mm 0.00 in0.0 mm
09:00 AM 26.0°F-3.3°C 22.4°F-5.3°C 86% 3.5 mph SW5.6 kmh SW 5.8 mph9.3 kmh 30.25 in1024.4 mb - 0.00 in0.0 mm 0.00 in0.0 mm
09:10 AM 26.1°F-3.3°C 22.5°F-5.3°C 86% 2.3 mph SW3.7 kmh SW 3.5 mph5.6 kmh 30.25 in1024.4 mb - 0.00 in0.0 mm 0.00 in0.0 mm
09:20 AM 26.2°F-3.2°C 22.6°F-5.2°C 86% 3.5 mph SW5.6 kmh SW 3.5 mph5.6 kmh 30.25 in1024.4 mb - 0.00 in0.0 mm 0.00 in0.0 mm
09:30 AM 26.3°F-3.2°C 22.7°F-5.2°C 86% 2.3 mph SW3.7 kmh SW 2.3 mph3.7 kmh 30.25 in1024.4 mb - 0.00 in0.0 mm 0.00 in0.0 mm
09:40 AM 26.3°F-3.2°C 22.7°F-5.2°C 86% 3.5 mph SW5.6 kmh SW 4.6 mph7.4 kmh 30.26 in1024.7 mb - 0.00 in0.0 mm 0.00 in0.0 mm
09:50 AM 26.3°F-3.2°C 22.7°F-5.2°C 86% 2.3 mph SW3.7 kmh SW 3.5 mph5.6 kmh 30.25 in1024.4 mb - 0.00 in0.0 mm 0.00 in0.0 mm
10:00 AM 26.5°F-3.1°C 23.2°F-4.9°C 87% 3.5 mph SW5.6 kmh SW 4.6 mph7.4 kmh 30.26 in1024.7 mb - 0.00 in0.0 mm 0.00 in0.0 mm
10:10 AM 26.6°F-3.0°C 23.3°F-4.8°C 87% 3.5 mph SW5.6 kmh SW 4.6 mph7.4 kmh 30.26 in1024.7 mb - 0.00 in0.0 mm 0.00 in0.0 mm
10:20 AM 26.7°F-2.9°C 23.1°F-4.9°C 86% 3.5 mph SSW5.6 kmh SSW 3.5 mph5.6 kmh 30.26 in1024.7 mb - 0.00 in0.0 mm 0.00 in0.0 mm
10:30 AM 26.8°F-2.9°C 23.2°F-4.9°C 86% 3.5 mph SW5.6 kmh SW 5.8 mph9.3 kmh 30.26 in1024.7 mb - 0.00 in0.0 mm 0.00 in0.0 mm
10:40 AM 27.0°F-2.8°C 23.4°F-4.8°C 86% 3.5 mph SW5.6 kmh SW 4.6 mph7.4 kmh 30.27 in1025.1 mb - 0.00 in0.0 mm 0.00 in0.0 mm
10:50 AM 27.2°F-2.7°C 23.6°F-4.7°C 86% 2.3 mph SW3.7 kmh SW 3.5 mph5.6 kmh 30.27 in1025.1 mb - 0.00 in0.0 mm 0.00 in0.0 mm
11:00 AM 27.3°F-2.6°C 23.7°F-4.6°C 86% 2.3 mph SW3.7 kmh SW 3.5 mph5.6 kmh 30.27 in1025.1 mb - 0.00 in0.0 mm 0.00 in0.0 mm
11:10 AM 27.6°F-2.4°C 23.7°F-4.6°C 85% 4.6 mph SW7.4 kmh SW 6.9 mph11.1 kmh 30.26 in1024.7 mb - 0.00 in0.0 mm 0.00 in0.0 mm
11:20 AM 27.8°F-2.3°C 23.9°F-4.5°C 85% 3.5 mph SW5.6 kmh SW 4.6 mph7.4 kmh 30.26 in1024.7 mb - 0.00 in0.0 mm 0.00 in0.0 mm
11:30 AM 28.0°F-2.2°C 24.1°F-4.4°C 85% 4.6 mph SW7.4 kmh SW 8.1 mph13.0 kmh 30.25 in1024.4 mb - 0.00 in0.0 mm 0.00 in0.0 mm
11:40 AM 28.1°F-2.2°C 24.2°F-4.3°C 85% 3.5 mph SW5.6 kmh SW 4.6 mph7.4 kmh 30.25 in1024.4 mb - 0.00 in0.0 mm 0.00 in0.0 mm
11:50 AM 28.4°F-2.0°C 24.2°F-4.3°C 84% 6.9 mph SW11.1 kmh SW 8.1 mph13.0 kmh 30.25 in1024.4 mb - 0.00 in0.0 mm 0.00 in0.0 mm
12:01 PM 28.6°F-1.9°C 24.1°F-4.4°C 83% 5.8 mph SW9.3 kmh SW 6.9 mph11.1 kmh 30.24 in1024.0 mb - 0.00 in0.0 mm 0.00 in0.0 mm
12:20 PM 28.8°F-1.8°C 24.0°F-4.4°C 82% 6.9 mph SW11.1 kmh SW 11.5 mph18.5 kmh 30.23 in1023.7 mb - 0.00 in0.0 mm 0.00 in0.0 mm
12:30 PM 28.7°F-1.8°C 23.9°F-4.5°C 82% 3.5 mph SW5.6 kmh SW 4.6 mph7.4 kmh 30.22 in1023.4 mb - 0.00 in0.0 mm 0.00 in0.0 mm
12:40 PM 28.8°F-1.8°C 24.3°F-4.3°C 83% 8.1 mph WSW13.0 kmh WSW 11.5 mph18.5 kmh 30.21 in1023.0 mb - 0.00 in0.0 mm 0.00 in0.0 mm
12:50 PM 28.8°F-1.8°C 24.2°F-4.3°C 83% 5.8 mph WSW9.3 kmh WSW 10.4 mph16.7 kmh 30.20 in1022.7 mb - 0.00 in0.0 mm 0.00 in0.0 mm
01:00 PM 28.7°F-1.8°C 24.2°F-4.3°C 83% 5.8 mph WSW9.3 kmh WSW 11.5 mph18.5 kmh 30.20 in1022.7 mb - 0.00 in0.0 mm 0.00 in0.0 mm
01:10 PM 28.9°F-1.7°C 24.1°F-4.4°C 82% 8.1 mph WSW13.0 kmh WSW 11.5 mph18.5 kmh 30.20 in1022.7 mb - 0.00 in0.0 mm 0.00 in0.0 mm
01:20 PM 28.9°F-1.7°C 24.1°F-4.4°C 82% 5.8 mph SW9.3 kmh SW 13.8 mph22.2 kmh 30.19 in1022.4 mb - 0.00 in0.0 mm 0.00 in0.0 mm
01:30 PM 28.8°F-1.8°C 24.3°F-4.3°C 83% 5.8 mph SW9.3 kmh SW 8.1 mph13.0 kmh 30.18 in1022.0 mb - 0.00 in0.0 mm 0.00 in0.0 mm
01:40 PM 28.7°F-1.8°C 24.2°F-4.3°C 83% 6.9 mph SW11.1 kmh SW 11.5 mph18.5 kmh 30.18 in1022.0 mb - 0.00 in0.0 mm 0.00 in0.0 mm
01:50 PM 28.8°F-1.8°C 24.3°F-4.3°C 83% 4.6 mph SW7.4 kmh SW 9.2 mph14.8 kmh 30.18 in1022.0 mb - 0.00 in0.0 mm 0.00 in0.0 mm
02:00 PM 28.9°F-1.7°C 24.4°F-4.2°C 83% 4.6 mph WSW7.4 kmh WSW 5.8 mph9.3 kmh 30.16 in1021.3 mb - 0.00 in0.0 mm 0.00 in0.0 mm
02:10 PM 28.9°F-1.7°C 24.3°F-4.3°C 83% 4.6 mph WSW7.4 kmh WSW 6.9 mph11.1 kmh 30.16 in1021.3 mb - 0.00 in0.0 mm 0.00 in0.0 mm
02:20 PM 28.9°F-1.7°C 24.4°F-4.2°C 83% 5.8 mph WSW9.3 kmh WSW 8.1 mph13.0 kmh 30.16 in1021.3 mb - 0.00 in0.0 mm 0.00 in0.0 mm
02:30 PM 29.0°F-1.7°C 24.5°F-4.2°C 83% 8.1 mph SW13.0 kmh SW 11.5 mph18.5 kmh 30.16 in1021.3 mb - 0.00 in0.0 mm 0.00 in0.0 mm
02:40 PM 28.9°F-1.7°C 24.7°F-4.1°C 84% 5.8 mph SW9.3 kmh SW 9.2 mph14.8 kmh 30.16 in1021.3 mb - 0.00 in0.0 mm 0.00 in0.0 mm
02:50 PM 28.9°F-1.7°C 24.7°F-4.1°C 84% 8.1 mph SW13.0 kmh SW 11.5 mph18.5 kmh 30.15 in1021.0 mb - 0.00 in0.0 mm 0.00 in0.0 mm
03:00 PM 28.9°F-1.7°C 24.6°F-4.1°C 84% 5.8 mph SW9.3 kmh SW 8.1 mph13.0 kmh 30.16 in1021.3 mb - 0.00 in0.0 mm 0.00 in0.0 mm
03:10 PM 28.9°F-1.7°C 24.7°F-4.1°C 84% 6.9 mph SW11.1 kmh SW 13.8 mph22.2 kmh 30.15 in1021.0 mb - 0.00 in0.0 mm 0.00 in0.0 mm
03:20 PM 28.8°F-1.8°C 24.9°F-3.9°C 85% 5.8 mph SW9.3 kmh SW 8.1 mph13.0 kmh 30.15 in1021.0 mb - 0.00 in0.0 mm 0.00 in0.0 mm
03:30 PM 28.8°F-1.8°C 24.9°F-3.9°C 85% 4.6 mph SW7.4 kmh SW 8.1 mph13.0 kmh 30.15 in1021.0 mb - 0.00 in0.0 mm 0.00 in0.0 mm
03:40 PM 28.8°F-1.8°C 24.9°F-3.9°C 85% 4.6 mph SSW7.4 kmh SSW 11.5 mph18.5 kmh 30.15 in1021.0 mb - 0.00 in0.0 mm 0.00 in0.0 mm
03:50 PM 28.5°F-1.9°C 24.6°F-4.1°C 85% 5.8 mph SW9.3 kmh SW 9.2 mph14.8 kmh 30.15 in1021.0 mb - 0.00 in0.0 mm 0.00 in0.0 mm
04:00 PM 28.4°F-2.0°C 24.7°F-4.1°C 86% 8.1 mph SSW13.0 kmh SSW 12.7 mph20.4 kmh 30.15 in1021.0 mb - 0.00 in0.0 mm 0.00 in0.0 mm
04:10 PM 28.4°F-2.0°C 24.7°F-4.1°C 86% 6.9 mph SW11.1 kmh SW 11.5 mph18.5 kmh 30.14 in1020.7 mb - 0.00 in0.0 mm 0.00 in0.0 mm
04:20 PM 28.3°F-2.1°C 24.6°F-4.1°C 86% 6.9 mph SW11.1 kmh SW 10.4 mph16.7 kmh 30.14 in1020.7 mb - 0.00 in0.0 mm 0.00 in0.0 mm
04:30 PM 28.3°F-2.1°C 24.7°F-4.1°C 86% 8.1 mph SW13.0 kmh SW 10.4 mph16.7 kmh 30.14 in1020.7 mb - 0.00 in0.0 mm 0.00 in0.0 mm
04:40 PM 28.3°F-2.1°C 24.7°F-4.1°C 86% 4.6 mph SW7.4 kmh SW 5.8 mph9.3 kmh 30.14 in1020.7 mb - 0.00 in0.0 mm 0.00 in0.0 mm
04:50 PM 28.3°F-2.1°C 24.6°F-4.1°C 86% 6.9 mph SW11.1 kmh SW 12.7 mph20.4 kmh 30.14 in1020.7 mb - 0.00 in0.0 mm 0.00 in0.0 mm
05:00 PM 28.2°F-2.1°C 24.6°F-4.1°C 86% 5.8 mph SW9.3 kmh SW 9.2 mph14.8 kmh 30.14 in1020.7 mb - 0.00 in0.0 mm 0.00 in0.0 mm
05:10 PM 28.2°F-2.1°C 24.6°F-4.1°C 86% 6.9 mph SSW11.1 kmh SSW 12.7 mph20.4 kmh 30.14 in1020.7 mb - 0.00 in0.0 mm 0.00 in0.0 mm
05:20 PM 28.2°F-2.1°C 24.8°F-4.0°C 87% 8.1 mph SW13.0 kmh SW 8.1 mph13.0 kmh 30.13 in1020.3 mb - 0.00 in0.0 mm 0.00 in0.0 mm
05:30 PM 28.1°F-2.2°C 24.7°F-4.1°C 87% 5.8 mph SW9.3 kmh SW 5.8 mph9.3 kmh 30.12 in1020.0 mb - 0.00 in0.0 mm 0.00 in0.0 mm
05:40 PM 28.1°F-2.2°C 25.0°F-3.9°C 88% 5.8 mph SW9.3 kmh SW 12.7 mph20.4 kmh 30.12 in1020.0 mb - 0.00 in0.0 mm 0.00 in0.0 mm
05:50 PM 28.0°F-2.2°C 24.9°F-3.9°C 88% 4.6 mph SW7.4 kmh SW 6.9 mph11.1 kmh 30.12 in1020.0 mb - 0.00 in0.0 mm 0.00 in0.0 mm
06:00 PM 28.0°F-2.2°C 24.9°F-3.9°C 88% 4.6 mph SSW7.4 kmh SSW 6.9 mph11.1 kmh 30.11 in1019.6 mb - 0.00 in0.0 mm 0.00 in0.0 mm
06:10 PM 28.0°F-2.2°C 25.2°F-3.8°C 89% 4.6 mph SW7.4 kmh SW 5.8 mph9.3 kmh 30.11 in1019.6 mb - 0.00 in0.0 mm 0.00 in0.0 mm
06:20 PM 28.0°F-2.2°C 25.2°F-3.8°C 89% 3.5 mph S5.6 kmh S 5.8 mph9.3 kmh 30.11 in1019.6 mb - 0.00 in0.0 mm 0.00 in0.0 mm
06:30 PM 28.0°F-2.2°C 25.2°F-3.8°C 89% 4.6 mph SSW7.4 kmh SSW 5.8 mph9.3 kmh 30.11 in1019.6 mb - 0.00 in0.0 mm 0.00 in0.0 mm
06:40 PM 28.1°F-2.2°C 25.2°F-3.8°C 89% 4.6 mph SSW7.4 kmh SSW 6.9 mph11.1 kmh 30.11 in1019.6 mb - 0.00 in0.0 mm 0.00 in0.0 mm
06:50 PM 28.1°F-2.2°C 25.6°F-3.6°C 90% 4.6 mph SSW7.4 kmh SSW 10.4 mph16.7 kmh 30.11 in1019.6 mb - 0.00 in0.0 mm 0.00 in0.0 mm
07:00 PM 28.2°F-2.1°C 25.6°F-3.6°C 90% 3.5 mph SSW5.6 kmh SSW 6.9 mph11.1 kmh 30.11 in1019.6 mb - 0.00 in0.0 mm 0.00 in0.0 mm
07:10 PM 28.4°F-2.0°C 25.8°F-3.4°C 90% 5.8 mph SW9.3 kmh SW 8.1 mph13.0 kmh 30.11 in1019.6 mb - 0.00 in0.0 mm 0.00 in0.0 mm
07:20 PM 28.4°F-2.0°C 25.9°F-3.4°C 90% 5.8 mph SW9.3 kmh SW 5.8 mph9.3 kmh 30.11 in1019.6 mb - 0.00 in0.0 mm 0.00 in0.0 mm
07:30 PM 28.6°F-1.9°C 26.0°F-3.3°C 90% 6.9 mph SSW11.1 kmh SSW 8.1 mph13.0 kmh 30.11 in1019.6 mb - 0.00 in0.0 mm 0.00 in0.0 mm
07:40 PM 28.7°F-1.8°C 26.2°F-3.2°C 90% 4.6 mph SSW7.4 kmh SSW 9.2 mph14.8 kmh 30.11 in1019.6 mb - 0.00 in0.0 mm 0.00 in0.0 mm
07:50 PM 28.8°F-1.8°C 26.3°F-3.2°C 90% 4.6 mph SSW7.4 kmh SSW 8.1 mph13.0 kmh 30.11 in1019.6 mb - 0.00 in0.0 mm 0.00 in0.0 mm
08:00 PM 29.0°F-1.7°C 26.4°F-3.1°C 90% 5.8 mph SW9.3 kmh SW 6.9 mph11.1 kmh 30.11 in1019.6 mb - 0.00 in0.0 mm 0.00 in0.0 mm
08:10 PM 29.1°F-1.6°C 26.5°F-3.1°C 90% 8.1 mph S13.0 kmh S 10.4 mph16.7 kmh 30.10 in1019.3 mb - 0.00 in0.0 mm 0.00 in0.0 mm
08:20 PM 29.3°F-1.5°C 27.0°F-2.8°C 91% 6.9 mph SSW11.1 kmh SSW 11.5 mph18.5 kmh 30.10 in1019.3 mb - 0.00 in0.0 mm 0.00 in0.0 mm
08:30 PM 29.4°F-1.4°C 27.1°F-2.7°C 91% 5.8 mph SSW9.3 kmh SSW 11.5 mph18.5 kmh 30.10 in1019.3 mb - 0.00 in0.0 mm 0.00 in0.0 mm
08:40 PM 29.5°F-1.4°C 27.2°F-2.7°C 91% 4.6 mph SW7.4 kmh SW 8.1 mph13.0 kmh 30.10 in1019.3 mb - 0.00 in0.0 mm 0.00 in0.0 mm
08:50 PM 29.7°F-1.3°C 27.4°F-2.6°C 91% 3.5 mph SW5.6 kmh SW 5.8 mph9.3 kmh 30.10 in1019.3 mb - 0.00 in0.0 mm 0.00 in0.0 mm
09:00 PM 29.8°F-1.2°C 27.5°F-2.5°C 91% 4.6 mph SW7.4 kmh SW 5.8 mph9.3 kmh 30.10 in1019.3 mb - 0.00 in0.0 mm 0.00 in0.0 mm
09:10 PM 30.0°F-1.1°C 27.7°F-2.4°C 91% 5.8 mph SW9.3 kmh SW 5.8 mph9.3 kmh 30.10 in1019.3 mb - 0.00 in0.0 mm 0.00 in0.0 mm
09:20 PM 30.1°F-1.1°C 27.8°F-2.3°C 91% 5.8 mph SW9.3 kmh SW 9.2 mph14.8 kmh 30.10 in1019.3 mb - 0.00 in0.0 mm 0.00 in0.0 mm
09:30 PM 30.3°F-0.9°C 28.0°F-2.2°C 91% 5.8 mph SW9.3 kmh SW 8.1 mph13.0 kmh 30.10 in1019.3 mb - 0.00 in0.0 mm 0.00 in0.0 mm
09:40 PM 30.5°F-0.8°C 28.2°F-2.1°C 91% 5.8 mph SW9.3 kmh SW 9.2 mph14.8 kmh 30.10 in1019.3 mb - 0.00 in0.0 mm 0.00 in0.0 mm
09:50 PM 30.7°F-0.7°C 28.4°F-2.0°C 91% 5.8 mph SW9.3 kmh SW 10.4 mph16.7 kmh 30.10 in1019.3 mb - 0.00 in0.0 mm 0.00 in0.0 mm
10:00 PM 30.8°F-0.7°C 28.5°F-1.9°C 91% 3.5 mph SW5.6 kmh SW 5.8 mph9.3 kmh 30.11 in1019.6 mb - 0.00 in0.0 mm 0.00 in0.0 mm
10:10 PM 31.0°F-0.6°C 28.7°F-1.8°C 91% 4.6 mph SW7.4 kmh SW 6.9 mph11.1 kmh 30.11 in1019.6 mb - 0.00 in0.0 mm 0.00 in0.0 mm
10:20 PM 31.1°F-0.5°C 28.8°F-1.8°C 91% 4.6 mph SW7.4 kmh SW 5.8 mph9.3 kmh 30.10 in1019.3 mb - 0.00 in0.0 mm 0.00 in0.0 mm
10:30 PM 31.2°F-0.4°C 28.9°F-1.7°C 91% 4.6 mph SW7.4 kmh SW 8.1 mph13.0 kmh 30.11 in1019.6 mb - 0.00 in0.0 mm 0.00 in0.0 mm
10:40 PM 31.4°F-0.3°C 29.1°F-1.6°C 91% 6.9 mph SW11.1 kmh SW 10.4 mph16.7 kmh 30.11 in1019.6 mb - 0.00 in0.0 mm 0.00 in0.0 mm
10:50 PM 31.5°F-0.3°C 29.2°F-1.6°C 91% 5.8 mph SW9.3 kmh SW 9.2 mph14.8 kmh 30.11 in1019.6 mb - 0.00 in0.0 mm 0.00 in0.0 mm
11:00 PM 31.7°F-0.2°C 29.4°F-1.4°C 91% 5.8 mph SW9.3 kmh SW 8.1 mph13.0 kmh 30.11 in1019.6 mb - 0.00 in0.0 mm 0.00 in0.0 mm
11:10 PM 31.9°F-0.1°C 29.6°F-1.3°C 91% 4.6 mph WSW7.4 kmh WSW 9.2 mph14.8 kmh 30.11 in1019.6 mb - 0.00 in0.0 mm 0.00 in0.0 mm
11:20 PM 32.0°F0.0°C 29.7°F-1.3°C 91% 5.8 mph SW9.3 kmh SW 8.1 mph13.0 kmh 30.11 in1019.6 mb - 0.00 in0.0 mm 0.00 in0.0 mm
11:30 PM 32.1°F0.1°C 29.8°F-1.2°C 91% 3.5 mph WSW5.6 kmh WSW 5.8 mph9.3 kmh 30.11 in1019.6 mb - 0.00 in0.0 mm 0.00 in0.0 mm
11:40 PM 32.2°F0.1°C 29.9°F-1.2°C 91% 4.6 mph SW7.4 kmh SW 6.9 mph11.1 kmh 30.11 in1019.6 mb - 0.00 in0.0 mm 0.00 in0.0 mm
11:50 PM 32.3°F0.2°C 30.0°F-1.1°C 91% 4.6 mph SW7.4 kmh SW 6.9 mph11.1 kmh 30.12 in1020.0 mb - 0.00 in0.0 mm 0.00 in0.0 mm